Time;durP1;ratioP1;P1;durP2;ratioP2;P2;SDS_P1;SDS_P2;PMS_P1;PMS_P2;Temp;Humidity;BMP_temperature;BMP_pressure;BME280_temperature;BME280_humidity;BME280_pressure;Samples;Min_cycle;Max_cycle;Signal;HPM_P1;HPM_P2
2022/08/19 00:00:01;;;;;;;13.60;10.00;;;;;;;20.06;83.75;100190.36;84750;1327;22602;-70
2022/08/19 00:02:30;;;;;;;10.50;9.40;;;;;;;20.10;83.66;100189.89;84756;1326;22601;-72
2022/08/19 00:04:39;;;;;;;11.80;10.40;;;;;;;20.15;83.55;100194.00;84791;1326;22599;-71
2022/08/19 00:06:49;;;;;;;11.00;9.90;;;;;;;20.18;83.49;100190.34;84774;1327;24267;-71
2022/08/19 00:08:58;;;;;;;10.00;9.00;;;;;;;20.19;83.35;100187.42;84796;1325;22660;-71
2022/08/19 00:11:07;;;;;;;10.60;9.60;;;;;;;20.19;83.33;100183.40;84786;1327;22807;-70
2022/08/19 00:13:16;;;;;;;12.30;10.00;;;;;;;20.19;83.18;100185.53;84776;1326;23953;-72
2022/08/19 00:15:25;;;;;;;10.90;9.80;;;;;;;20.17;83.30;100186.73;84756;1326;22582;-72
2022/08/19 00:17:32;;;;;;;;;;;;;;;20.17;83.31;100190.11;84809;1327;22631;-70
2022/08/19 00:19:41;;;;;;;10.40;9.40;;;;;;;20.16;83.39;100189.83;84743;1327;22651;-72
2022/08/19 00:21:50;;;;;;;13.10;10.70;;;;;;;20.16;83.52;100189.12;84748;1327;22603;-72
2022/08/19 00:23:59;;;;;;;11.40;9.70;;;;;;;20.14;83.32;100188.37;84751;1323;22576;-72
2022/08/19 00:26:09;;;;;;;12.30;10.30;;;;;;;20.11;83.27;100184.00;84780;1326;22607;-73
2022/08/19 00:28:17;;;;;;;14.70;9.20;;;;;;;20.08;83.24;100189.85;84740;1326;22611;-72
2022/08/19 00:30:27;;;;;;;18.90;10.00;;;;;;;20.07;83.26;100190.84;84748;1326;22694;-72
2022/08/19 00:32:36;;;;;;;11.40;9.50;;;;;;;20.05;83.43;100189.56;84786;1325;24338;-71
2022/08/19 00:34:44;;;;;;;12.00;9.10;;;;;;;20.03;83.36;100190.52;84732;1326;22602;-71
2022/08/19 00:36:53;;;;;;;11.30;10.20;;;;;;;20.02;83.32;100188.98;84775;1327;23952;-72
2022/08/19 00:39:02;;;;;;;13.30;9.50;;;;;;;20.02;83.36;100192.70;84733;1326;22577;-72
2022/08/19 00:41:13;;;;;;;13.80;10.70;;;;;;;20.02;83.51;100190.95;84755;1326;24170;-73
2022/08/19 00:43:25;;;;;;;10.60;9.60;;;;;;;20.02;83.61;100191.13;84762;1327;25424;-72
2022/08/19 00:45:35;;;;;;;12.50;9.70;;;;;;;20.03;83.83;100191.36;84794;1326;22616;-71
2022/08/19 00:47:44;;;;;;;10.20;9.10;;;;;;;20.08;83.99;100195.02;84742;1327;22610;-72
2022/08/19 00:49:55;;;;;;;12.10;10.90;;;;;;;20.15;83.68;100195.39;84758;1326;22618;-73
2022/08/19 00:52:06;;;;;;;17.00;10.50;;;;;;;20.19;83.43;100192.91;84759;1326;22529;-70
2022/08/19 00:54:15;;;;;;;12.20;10.20;;;;;;;20.22;83.29;100188.98;84726;1326;22601;-71
2022/08/19 00:56:26;;;;;;;11.30;9.10;;;;;;;20.23;83.10;100188.13;84740;1318;26118;-71
2022/08/19 00:58:35;;;;;;;14.70;9.40;;;;;;;20.24;82.98;100185.78;84773;1323;23287;-72
2022/08/19 01:00:44;;;;;;;12.30;9.40;;;;;;;20.22;82.90;100183.80;84783;1326;24170;-70
2022/08/19 01:02:52;;;;;;;12.10;9.60;;;;;;;20.21;82.95;100189.76;84761;1326;23907;-71
2022/08/19 01:05:01;;;;;;;11.80;10.00;;;;;;;20.21;83.03;100192.44;84746;1326;22616;-72
2022/08/19 01:07:10;;;;;;;16.40;10.60;;;;;;;20.19;82.97;100197.88;84748;1327;22686;-72
2022/08/19 01:09:19;;;;;;;9.80;8.90;;;;;;;20.17;83.02;100206.19;84778;1326;22695;-73
2022/08/19 01:11:28;;;;;;;11.10;10.00;;;;;;;20.15;83.03;100200.85;84819;1321;22881;-72
2022/08/19 01:13:37;;;;;;;10.70;9.50;;;;;;;20.12;83.06;100200.20;84750;1327;22602;-72
2022/08/19 01:15:48;;;;;;;16.20;10.10;;;;;;;20.08;83.29;100198.35;84771;1327;25332;-71
2022/08/19 01:17:57;;;;;;;10.70;8.90;;;;;;;20.07;83.47;100196.88;84782;1325;22655;-71
2022/08/19 01:20:08;;;;;;;10.60;9.10;;;;;;;20.05;83.53;100203.27;84760;1324;22589;-72
2022/08/19 01:22:21;;;;;;;11.60;10.40;;;;;;;20.03;83.91;100200.97;84778;1326;22583;-72
2022/08/19 01:24:30;;;;;;;15.80;11.60;;;;;;;20.01;83.83;100200.77;84785;1322;22929;-72
2022/08/19 01:26:43;;;;;;;10.00;9.10;;;;;;;19.98;83.85;100198.66;84763;1322;22574;-72
2022/08/19 01:28:53;;;;;;;10.50;8.60;;;;;;;19.95;83.87;100197.88;84731;1327;24342;-70
2022/08/19 01:31:02;;;;;;;12.20;9.50;;;;;;;19.93;83.97;100201.08;84779;1322;22600;-72
2022/08/19 01:33:10;;;;;;;11.00;9.10;;;;;;;19.90;84.10;100204.83;84810;1327;22823;-72
2022/08/19 01:35:19;;;;;;;14.60;10.10;;;;;;;19.88;84.35;100203.02;84769;1327;22603;-72
2022/08/19 01:37:29;;;;;;;13.80;9.80;;;;;;;19.87;84.44;100202.96;84767;1327;24280;-71
2022/08/19 01:39:38;;;;;;;13.60;10.00;;;;;;;19.83;84.54;100204.80;84780;1327;24310;-71
2022/08/19 01:41:47;;;;;;;10.80;9.70;;;;;;;19.80;84.60;100205.21;84821;1323;22776;-73
2022/08/19 01:43:57;;;;;;;18.60;10.00;;;;;;;19.76;84.48;100195.45;84791;1326;22615;-72
2022/08/19 01:46:05;;;;;;;11.00;9.90;;;;;;;19.73;84.52;100194.11;84812;1326;22925;-70
2022/08/19 01:48:14;;;;;;;17.10;10.50;;;;;;;19.70;84.56;100191.38;84796;1326;22658;-71
2022/08/19 01:50:27;;;;;;;10.20;9.20;;;;;;;19.67;84.73;100188.39;84766;1326;22603;-71
2022/08/19 01:52:37;;;;;;;12.00;9.90;;;;;;;19.66;84.81;100190.09;84754;1326;23905;-71
2022/08/19 01:54:45;;;;;;;12.80;9.40;;;;;;;19.66;85.02;100187.27;84768;1326;22617;-71
2022/08/19 01:56:56;;;;;;;12.40;10.20;;;;;;;19.66;85.10;100187.95;84818;1327;24237;-69
2022/08/19 01:59:08;;;;;;;10.70;9.70;;;;;;;19.66;84.98;100184.05;84800;1325;22719;-70
2022/08/19 02:01:16;;;;;;;13.40;10.20;;;;;;;19.65;85.01;100186.95;84744;1327;22580;-71
2022/08/19 02:03:25;;;;;;;11.50;10.50;;;;;;;19.65;84.99;100190.49;84728;1327;24075;-72
2022/08/19 02:05:34;;;;;;;19.90;15.00;;;;;;;19.64;85.06;100190.11;84805;1322;22599;-72
2022/08/19 02:07:44;;;;;;;14.30;11.60;;;;;;;19.62;85.24;100192.33;84792;1327;22705;-72
2022/08/19 02:09:53;;;;;;;18.00;13.30;;;;;;;19.60;85.08;100190.35;84758;1326;23965;-72
2022/08/19 02:12:01;;;;;;;18.40;13.10;;;;;;;19.57;85.06;100186.34;84753;1318;22643;-71
2022/08/19 02:14:11;;;;;;;16.30;11.60;;;;;;;19.55;85.15;100189.32;84656;1329;22602;-70
2022/08/19 02:16:20;;;;;;;14.00;11.40;;;;;;;19.53;85.13;100188.10;84782;1326;22696;-72
2022/08/19 02:18:29;;;;;;;13.20;11.10;;;;;;;19.50;85.01;100185.10;84759;1327;22803;-70
2022/08/19 02:20:38;;;;;;;12.40;11.10;;;;;;;19.47;85.14;100182.35;84777;1326;22594;-70
2022/08/19 02:22:46;;;;;;;13.30;11.20;;;;;;;19.45;85.03;100182.35;84753;1326;25300;-69
2022/08/19 02:24:55;;;;;;;15.50;10.60;;;;;;;19.42;85.17;100176.91;84767;1325;22622;-70
2022/08/19 02:27:04;;;;;;;12.70;11.50;;;;;;;19.40;85.32;100175.61;84808;1322;22719;-71
2022/08/19 02:29:13;;;;;;;13.60;10.70;;;;;;;19.39;85.37;100173.41;84785;1327;22666;-72
2022/08/19 02:31:23;;;;;;;13.00;9.90;;;;;;;19.40;85.56;100170.52;84807;1325;26471;-72
2022/08/19 02:33:32;;;;;;;15.10;10.50;;;;;;;19.42;85.59;100170.92;84760;1326;22866;-72
2022/08/19 02:35:43;;;;;;;12.50;11.20;;;;;;;19.43;85.55;100168.14;84796;1326;22631;-72
2022/08/19 02:40:18;;;;;;;16.80;11.10;;;;;;;19.46;85.61;100168.65;84798;1327;26612;-72
2022/08/19 02:42:27;;;;;;;13.40;10.70;;;;;;;19.44;85.48;100170.66;84803;1326;22586;-71
2022/08/19 02:44:35;;;;;;;11.90;10.60;;;;;;;19.44;85.40;100175.98;84799;1327;22584;-71
2022/08/19 02:46:45;;;;;;;11.80;10.40;;;;;;;19.43;85.60;100173.98;84781;1326;23965;-71
2022/08/19 02:48:55;;;;;;;12.00;10.80;;;;;;;19.40;85.55;100181.27;84752;1328;22591;-71
2022/08/19 02:51:05;;;;;;;16.10;10.90;;;;;;;19.39;85.66;100181.92;84773;1327;22624;-72
2022/08/19 02:53:13;;;;;;;12.40;10.70;;;;;;;19.38;85.56;100179.71;84790;1326;25469;-71
2022/08/19 02:55:22;;;;;;;12.80;11.10;;;;;;;19.36;85.60;100183.23;84763;1327;24219;-71
2022/08/19 02:57:32;;;;;;;16.30;10.60;;;;;;;19.34;85.53;100180.16;84750;1321;24256;-71
2022/08/19 02:59:41;;;;;;;12.60;10.90;;;;;;;19.33;85.61;100178.11;84787;1326;22727;-71
2022/08/19 03:01:49;;;;;;;15.10;10.80;;;;;;;19.32;85.71;100174.27;84751;1326;22607;-71
2022/08/19 03:04:01;;;;;;;11.80;10.60;;;;;;;19.32;85.57;100176.42;84803;1326;22584;-70
2022/08/19 03:06:14;;;;;;;11.50;10.40;;;;;;;19.29;85.64;100170.44;84771;1322;22581;-72
2022/08/19 03:08:23;;;;;;;13.40;11.10;;;;;;;19.28;85.63;100173.58;84792;1325;25434;-72
2022/08/19 03:10:33;;;;;;;13.60;11.10;;;;;;;19.26;85.53;100176.88;84788;1326;22597;-72
2022/08/19 03:12:42;;;;;;;13.40;11.20;;;;;;;19.24;85.51;100179.67;84779;1329;22571;-72
2022/08/19 03:14:50;;;;;;;15.50;11.30;;;;;;;19.22;85.65;100179.17;84749;1327;22682;-72
2022/08/19 03:16:59;;;;;;;12.80;11.60;;;;;;;19.18;85.86;100175.04;84736;1325;24217;-71
2022/08/19 03:19:08;;;;;;;11.90;10.50;;;;;;;19.17;86.09;100172.67;84767;1325;22915;-71
2022/08/19 03:21:21;;;;;;;15.40;11.20;;;;;;;19.16;85.97;100166.88;84753;1327;22663;-71
2022/08/19 03:23:29;;;;;;;13.90;11.50;;;;;;;19.17;86.20;100164.36;84746;1326;22566;-72
2022/08/19 03:25:43;;;;;;;14.00;11.70;;;;;;;19.19;86.49;100163.87;84728;1327;25439;-70
2022/08/19 03:27:51;;;;;;;12.80;11.60;;;;;;;19.20;86.57;100167.08;84744;1327;25485;-71
2022/08/19 03:30:00;;;;;;;12.70;11.40;;;;;;;19.19;86.59;100175.81;84778;1328;22856;-71
2022/08/19 03:32:09;;;;;;;14.10;11.00;;;;;;;19.18;86.61;100176.44;84780;1326;25194;-71
2022/08/19 03:34:20;;;;;;;14.90;11.50;;;;;;;19.18;86.74;100180.70;84796;1327;26906;-71
2022/08/19 03:36:27;;;;;;;;;;;;;;;19.19;86.76;100183.45;84795;1327;24131;-71
2022/08/19 03:38:36;;;;;;;14.50;11.70;;;;;;;19.18;87.03;100182.96;84756;1327;22596;-71
2022/08/19 03:40:45;;;;;;;12.00;10.80;;;;;;;19.20;87.00;100185.16;84294;1328;520693;-71
2022/08/19 03:42:53;;;;;;;15.90;11.80;;;;;;;19.20;86.98;100183.69;84734;1327;25415;-71
2022/08/19 03:45:02;;;;;;;14.30;11.70;;;;;;;19.23;87.31;100184.38;84777;1326;22875;-73
2022/08/19 03:47:16;;;;;;;13.00;11.00;;;;;;;19.28;87.23;100181.90;84766;1327;24266;-72
2022/08/19 03:49:26;;;;;;;17.90;11.50;;;;;;;19.32;87.38;100188.95;84791;1322;22623;-71
2022/08/19 03:51:37;;;;;;;12.10;10.90;;;;;;;19.36;87.42;100193.13;84715;1327;22727;-70
2022/08/19 03:53:46;;;;;;;13.90;10.50;;;;;;;19.39;87.25;100198.18;84781;1327;23915;-72
2022/08/19 03:55:54;;;;;;;14.30;11.50;;;;;;;19.43;87.38;100201.42;84792;1325;22715;-71
2022/08/19 03:58:03;;;;;;;11.10;10.00;;;;;;;19.45;87.38;100198.58;84788;1324;22593;-70
2022/08/19 04:00:15;;;;;;;13.80;11.00;;;;;;;19.49;87.48;100199.69;84778;1326;23940;-71
2022/08/19 04:02:24;;;;;;;14.00;10.10;;;;;;;19.53;87.55;100198.64;84805;1327;22858;-72
2022/08/19 04:04:33;;;;;;;11.40;9.90;;;;;;;19.58;87.58;100198.61;84772;1327;22633;-73
2022/08/19 04:06:42;;;;;;;16.70;10.00;;;;;;;19.63;87.72;100203.58;84807;1326;22742;-70
2022/08/19 04:08:53;;;;;;;11.40;9.70;;;;;;;19.68;87.72;100199.46;84798;1326;22583;-71
2022/08/19 04:11:02;;;;;;;16.60;10.00;;;;;;;19.74;87.69;100199.86;84767;1326;22588;-71
2022/08/19 04:13:11;;;;;;;14.30;10.20;;;;;;;19.82;87.81;100195.92;84778;1323;22573;-70
2022/08/19 04:15:21;;;;;;;18.20;10.20;;;;;;;19.89;87.95;100194.61;84793;1326;22686;-69
2022/08/19 04:17:31;;;;;;;13.60;9.60;;;;;;;19.96;87.89;100192.98;84790;1326;22620;-71
2022/08/19 04:19:42;;;;;;;11.40;10.20;;;;;;;20.02;87.94;100193.56;84771;1327;22610;-70
2022/08/19 04:21:52;;;;;;;10.50;9.40;;;;;;;20.09;87.90;100187.36;84808;1326;22591;-71
2022/08/19 04:24:01;;;;;;;13.00;10.10;;;;;;;20.17;88.09;100182.47;84796;1327;22573;-71
2022/08/19 04:26:15;;;;;;;11.50;10.20;;;;;;;20.27;88.17;100185.01;84822;1324;22519;-71
2022/08/19 04:28:24;;;;;;;10.00;9.10;;;;;;;20.39;88.18;100182.46;84791;1327;22590;-72
2022/08/19 04:30:32;;;;;;;11.30;9.90;;;;;;;20.50;88.18;100189.56;84770;1327;22573;-73
2022/08/19 04:32:43;;;;;;;14.70;9.40;;;;;;;20.60;88.15;100193.13;84769;1319;22982;-69
2022/08/19 04:34:53;;;;;;;10.40;9.40;;;;;;;20.70;87.95;100193.34;84757;1327;22624;-70
2022/08/19 04:37:02;;;;;;;12.80;8.90;;;;;;;20.81;87.85;100193.89;84789;1329;22591;-73
2022/08/19 04:39:13;;;;;;;16.40;9.70;;;;;;;20.95;88.11;100195.05;84778;1323;22586;-73
2022/08/19 04:43:50;;;;;;;14.20;11.40;;;;;;;21.50;88.65;100197.23;84771;1326;25675;-72
2022/08/19 04:45:59;;;;;;;15.50;9.80;;;;;;;22.23;89.97;100191.51;84812;1321;22839;-71
2022/08/19 04:48:08;;;;;;;16.60;11.40;;;;;;;23.06;87.32;100181.27;84758;1326;24268;-72
2022/08/19 04:50:17;;;;;;;14.00;11.10;;;;;;;23.80;84.75;100179.44;84794;1325;22583;-72
2022/08/19 04:52:26;;;;;;;15.80;11.10;;;;;;;24.46;82.53;100171.96;84790;1326;22590;-72
2022/08/19 04:54:34;;;;;;;11.50;10.20;;;;;;;25.10;79.69;100171.02;84788;1326;23049;-72
2022/08/19 04:56:43;;;;;;;12.50;10.10;;;;;;;25.69;76.38;100173.90;84775;1326;22725;-71
2022/08/19 04:58:52;;;;;;;15.00;9.70;;;;;;;26.12;74.61;100173.42;84788;1322;22560;-72
2022/08/19 05:01:01;;;;;;;12.60;9.90;;;;;;;26.78;72.82;100173.51;84773;1327;25536;-72
2022/08/19 05:03:11;;;;;;;17.10;9.60;;;;;;;27.26;69.84;100174.71;84753;1327;22590;-72
2022/08/19 05:05:20;;;;;;;12.40;10.40;;;;;;;27.18;67.59;100173.98;84774;1327;22597;-72
2022/08/19 05:07:30;;;;;;;10.60;9.40;;;;;;;26.92;66.41;100171.92;84788;1328;24264;-72
2022/08/19 05:09:39;;;;;;;10.30;9.10;;;;;;;26.65;65.88;100174.41;84705;1328;22782;-72
2022/08/19 05:11:49;;;;;;;11.80;9.50;;;;;;;26.36;65.86;100174.83;84739;1327;24103;-71
2022/08/19 05:13:58;;;;;;;11.80;9.30;;;;;;;26.12;66.17;100178.67;84739;1328;22617;-72
2022/08/19 05:16:07;;;;;;;13.30;9.30;;;;;;;25.90;66.45;100180.45;84774;1325;25304;-71
2022/08/19 05:23:09;;;;;;;11.00;8.10;;;;;;;25.33;67.37;100179.03;84794;1327;22766;-73
2022/08/19 05:25:20;;;;;;;11.70;9.20;;;;;;;25.18;67.98;100187.77;84762;1326;24273;-71
2022/08/19 05:27:29;;;;;;;9.80;7.90;;;;;;;25.05;68.29;100190.84;84792;1326;24258;-72
2022/08/19 05:29:38;;;;;;;13.90;10.10;;;;;;;24.97;68.68;100189.63;84797;1329;22844;-72
2022/08/19 05:31:49;;;;;;;10.90;9.90;;;;;;;24.98;69.31;100194.56;84772;1318;22928;-71
2022/08/19 05:33:58;;;;;;;11.00;8.60;;;;;;;25.17;69.36;100189.40;84793;1322;23118;-71
2022/08/19 05:36:07;;;;;;;;;;;;;;;25.76;69.44;100192.46;84726;1326;25290;-73
2022/08/19 05:38:15;;;;;;;9.90;8.60;;;;;;;26.52;68.59;100189.40;84759;1328;24196;-73
2022/08/19 05:40:28;;;;;;;10.70;8.70;;;;;;;27.30;67.14;100187.95;84772;1326;22844;-73
2022/08/19 05:42:37;;;;;;;9.10;8.20;;;;;;;27.93;64.55;100192.56;84790;1326;22881;-72
2022/08/19 05:44:48;;;;;;;14.40;8.60;;;;;;;28.69;63.79;100195.15;84792;1326;22617;-71
2022/08/19 05:46:57;;;;;;;12.90;8.70;;;;;;;29.42;61.54;100200.13;84819;1326;22610;-72
2022/08/19 05:49:06;;;;;;;16.00;9.40;;;;;;;30.12;59.09;100204.02;84780;1326;22618;-72
2022/08/19 05:51:15;;;;;;;12.80;8.30;;;;;;;30.73;56.61;100203.50;84800;1328;22602;-72
2022/08/19 05:53:24;;;;;;;10.90;7.70;;;;;;;31.27;55.05;100201.98;84762;1325;25298;-72
2022/08/19 05:55:33;;;;;;;12.70;8.20;;;;;;;31.85;53.48;100200.57;84789;1327;23319;-72
2022/08/19 05:57:41;;;;;;;14.00;7.70;;;;;;;32.36;52.57;100197.04;84805;1325;22541;-72
2022/08/19 05:59:51;;;;;;;11.50;7.70;;;;;;;32.81;50.40;100192.84;84781;1326;22767;-72
2022/08/19 06:02:00;;;;;;;11.80;7.10;;;;;;;33.23;49.57;100185.70;84774;1327;22598;-72
2022/08/19 06:04:09;;;;;;;10.40;6.50;;;;;;;33.75;47.88;100184.54;84790;1326;24159;-72
2022/08/19 06:06:18;;;;;;;12.80;6.90;;;;;;;34.25;45.83;100186.84;84767;1326;22862;-72
2022/08/19 06:08:27;;;;;;;15.60;7.80;;;;;;;34.64;44.50;100183.86;84770;1327;22570;-73
2022/08/19 06:10:36;;;;;;;11.00;6.50;;;;;;;34.96;43.58;100175.85;84789;1322;23918;-72
2022/08/19 06:12:45;;;;;;;12.50;6.40;;;;;;;35.30;42.42;100169.00;84751;1326;22613;-72
2022/08/19 06:14:54;;;;;;;17.30;6.30;;;;;;;35.58;41.10;100171.67;84782;1326;24244;-71
2022/08/19 06:17:02;;;;;;;9.30;6.50;;;;;;;35.81;39.93;100174.62;84778;1326;22601;-73
2022/08/19 06:19:12;;;;;;;7.60;6.50;;;;;;;36.04;39.89;100179.38;84805;1322;22721;-74
2022/08/19 06:21:22;;;;;;;11.40;7.20;;;;;;;36.34;39.09;100185.12;84806;1327;22604;-73
2022/08/19 06:23:31;;;;;;;10.30;6.50;;;;;;;36.80;38.57;100191.30;84772;1326;22598;-73
2022/08/19 06:25:40;;;;;;;8.80;6.30;;;;;;;37.33;38.37;100195.05;84757;1327;22588;-73
2022/08/19 06:27:49;;;;;;;7.00;6.20;;;;;;;37.80;36.91;100196.14;84782;1327;22586;-72
2022/08/19 06:29:56;;;;;;;;;;;;;;;38.17;35.91;100192.69;84695;1328;22832;-72
2022/08/19 06:32:06;;;;;;;14.50;7.40;;;;;;;38.30;35.21;100193.89;84789;1326;25019;-73
2022/08/19 06:34:15;;;;;;;14.70;6.30;;;;;;;38.55;34.72;100195.21;84787;1327;24276;-73
2022/08/19 06:36:27;;;;;;;;;;;;;;;38.62;33.80;100197.66;84840;1326;24295;-72
2022/08/19 06:38:35;;;;;;;12.60;6.40;;;;;;;38.70;33.94;100199.52;84783;1326;23089;-72
2022/08/19 06:40:45;;;;;;;9.40;6.50;;;;;;;38.69;33.54;100201.05;84783;1326;22710;-72
2022/08/19 06:42:55;;;;;;;9.50;6.90;;;;;;;38.77;33.51;100199.83;84783;1327;25469;-73
2022/08/19 06:45:05;;;;;;;13.70;6.60;;;;;;;38.91;33.07;100200.55;84787;1325;22610;-73
2022/08/19 06:47:16;;;;;;;9.90;6.70;;;;;;;39.09;32.65;100203.26;84810;1327;26041;-73
2022/08/19 06:49:30;;;;;;;9.20;6.80;;;;;;;39.30;32.12;100205.52;84795;1326;22739;-73
2022/08/19 06:51:39;;;;;;;10.00;6.10;;;;;;;39.47;31.84;100204.33;84686;1321;24232;-73
2022/08/19 06:53:48;;;;;;;12.90;6.50;;;;;;;39.51;31.54;100201.05;84792;1326;22613;-72
2022/08/19 06:56:00;;;;;;;20.30;6.90;;;;;;;39.35;31.61;100200.02;84766;1321;22760;-74
2022/08/19 06:58:09;;;;;;;10.70;6.80;;;;;;;39.01;31.45;100194.65;84752;1328;22836;-74
2022/08/19 07:00:18;;;;;;;12.40;6.70;;;;;;;38.52;31.57;100191.08;84780;1326;25307;-73
2022/08/19 07:02:27;;;;;;;11.00;5.90;;;;;;;38.02;32.23;100192.34;84802;1325;25374;-71
2022/08/19 07:04:38;;;;;;;10.00;6.50;;;;;;;37.56;32.78;100189.73;84801;1326;22625;-72
2022/08/19 07:06:47;;;;;;;11.70;6.20;;;;;;;37.24;33.06;100186.36;84776;1327;23952;-72
2022/08/19 07:08:57;;;;;;;10.30;6.60;;;;;;;36.77;33.69;100190.07;84784;1326;22597;-72
2022/08/19 07:11:07;;;;;;;10.20;6.20;;;;;;;36.22;34.16;100197.66;84801;1327;22574;-72
2022/08/19 07:13:16;;;;;;;7.10;6.30;;;;;;;35.70;35.12;100202.55;84687;1329;22585;-72
2022/08/19 07:15:26;;;;;;;9.10;7.00;;;;;;;35.23;35.74;100206.83;84795;1327;22731;-72
2022/08/19 07:17:37;;;;;;;8.20;6.50;;;;;;;34.81;35.90;100207.15;84763;1324;22601;-71
2022/08/19 07:19:46;;;;;;;7.20;6.50;;;;;;;34.94;36.95;100209.78;84746;1327;22845;-72
2022/08/19 07:21:54;;;;;;;11.80;6.40;;;;;;;35.32;36.57;100207.80;84809;1327;24415;-73
2022/08/19 07:24:03;;;;;;;12.60;6.80;;;;;;;35.63;35.74;100206.62;84751;1326;26707;-73
2022/08/19 07:26:14;;;;;;;9.60;6.30;;;;;;;35.75;35.47;100204.92;84760;1327;22593;-73
2022/08/19 07:28:23;;;;;;;8.20;6.30;;;;;;;35.80;35.37;100197.36;84778;1325;22599;-73
2022/08/19 07:30:32;;;;;;;6.90;5.90;;;;;;;35.90;35.27;100191.17;84789;1327;22602;-72
2022/08/19 07:32:42;;;;;;;7.70;5.80;;;;;;;36.16;35.66;100187.30;84776;1327;23947;-72
2022/08/19 07:34:50;;;;;;;12.80;6.90;;;;;;;36.33;34.48;100184.96;84782;1327;25544;-72
2022/08/19 07:36:59;;;;;;;9.70;6.10;;;;;;;36.48;34.45;100184.57;84803;1327;22604;-72
2022/08/19 07:39:08;;;;;;;;;;;;;;;36.67;34.23;100178.70;84784;1323;24132;-72
2022/08/19 07:41:19;;;;;;;8.50;6.90;;;;;;;36.89;33.99;100181.15;84794;1327;22676;-72
2022/08/19 07:43:28;;;;;;;10.00;6.10;;;;;;;37.14;33.47;100182.92;84764;1327;22701;-71
2022/08/19 07:45:37;;;;;;;11.30;6.70;;;;;;;37.31;33.36;100184.77;84789;1326;25473;-71
2022/08/19 07:47:44;;;;;;;;;;;;;;;37.46;33.07;100187.53;84776;1327;22565;-72
2022/08/19 07:49:52;;;;;;;8.60;6.20;;;;;;;37.52;32.84;100193.63;84745;1327;22682;-72
2022/08/19 07:52:04;;;;;;;7.30;6.50;;;;;;;37.46;32.71;100192.73;84769;1328;22590;-72
2022/08/19 07:54:13;;;;;;;14.40;6.70;;;;;;;37.35;33.18;100186.20;84795;1322;22590;-73
2022/08/19 07:56:22;;;;;;;11.10;6.40;;;;;;;37.27;32.79;100193.30;84783;1326;25952;-73
2022/08/19 07:58:31;;;;;;;7.80;6.90;;;;;;;37.07;33.27;100193.39;84788;1327;23907;-73
2022/08/19 08:00:40;;;;;;;10.30;6.10;;;;;;;36.91;33.26;100193.42;84802;1325;22607;-73
2022/08/19 08:02:48;;;;;;;11.10;6.40;;;;;;;36.80;34.28;100187.59;84767;1326;22616;-73
2022/08/19 08:09:49;;;;;;;8.30;7.10;;;;;;;37.25;33.38;100181.17;84774;1327;23983;-73
2022/08/19 08:11:58;;;;;;;;;;;;;;;37.37;33.95;100182.77;84802;1326;24273;-73
2022/08/19 08:14:07;;;;;;;9.30;6.60;;;;;;;37.49;33.20;100182.85;84766;1327;24500;-74
2022/08/19 08:16:16;;;;;;;10.30;7.00;;;;;;;37.62;33.13;100184.61;84801;1322;22687;-74
2022/08/19 08:18:23;;;;;;;;;;;;;;;37.83;32.66;100183.66;84789;1326;23976;-72
2022/08/19 08:20:32;;;;;;;9.70;6.30;;;;;;;37.98;33.16;100186.46;84779;1321;22581;-73
2022/08/19 08:25:11;;;;;;;8.00;7.00;;;;;;;38.61;32.23;100200.80;84775;1326;22649;-73
2022/08/19 08:27:20;;;;;;;7.00;6.40;;;;;;;38.94;31.64;100202.36;84808;1327;24176;-73
2022/08/19 08:29:29;;;;;;;11.30;6.90;;;;;;;39.20;31.02;100200.48;84777;1327;22587;-72
2022/08/19 08:31:38;;;;;;;11.20;6.80;;;;;;;39.43;31.08;100197.59;84783;1326;24420;-73
2022/08/19 08:33:47;;;;;;;12.00;7.30;;;;;;;39.71;30.54;100191.54;84760;1327;22756;-73
2022/08/19 08:35:56;;;;;;;8.90;7.00;;;;;;;39.95;30.49;100192.48;84801;1327;22710;-72
2022/08/19 08:38:04;;;;;;;11.90;7.10;;;;;;;40.11;30.15;100194.94;84780;1326;22711;-72
2022/08/19 08:40:24;;;;;;;;;;;;;;;40.39;30.15;100194.67;84799;1322;22742;-72
2022/08/19 08:42:36;;;;;;;8.20;6.10;;;;;;;40.58;29.49;100196.86;84766;1326;22623;-74
2022/08/19 08:44:50;;;;;;;12.90;6.90;;;;;;;40.53;28.35;100194.27;84768;1327;23952;-73
2022/08/19 08:47:01;;;;;;;9.90;6.60;;;;;;;40.40;28.42;100197.33;84740;1327;22690;-73
2022/08/19 08:49:18;;;;;;;11.70;6.80;;;;;;;40.25;28.57;100196.08;84774;1327;22645;-73
2022/08/19 08:51:30;;;;;;;7.80;6.70;;;;;;;40.23;28.30;100194.58;84778;1327;22590;-72
2022/08/19 08:53:38;;;;;;;9.40;7.30;;;;;;;40.29;28.08;100199.75;84799;1326;22853;-72
2022/08/19 08:55:47;;;;;;;9.00;5.70;;;;;;;40.27;28.22;100206.67;84796;1326;22588;-72
2022/08/19 08:58:00;;;;;;;8.00;6.60;;;;;;;40.38;28.97;100213.21;84764;1325;22599;-73
2022/08/19 09:00:13;;;;;;;11.50;7.00;;;;;;;40.60;29.09;100215.92;84803;1326;22618;-73
2022/08/19 09:02:24;;;;;;;10.90;6.50;;;;;;;40.87;29.04;100213.52;84804;1325;22580;-73
2022/08/19 09:04:33;;;;;;;9.60;6.70;;;;;;;41.03;28.17;100210.82;84780;1327;24247;-74
2022/08/19 09:06:45;;;;;;;10.70;7.20;;;;;;;41.09;27.90;100206.91;84686;1330;23948;-73
2022/08/19 09:09:02;;;;;;;15.10;9.20;;;;;;;41.11;27.26;100208.34;84790;1326;22583;-71
2022/08/19 09:11:14;;;;;;;7.20;6.60;;;;;;;40.93;26.99;100213.41;84774;1327;22734;-72
2022/08/19 09:13:30;;;;;;;8.70;7.40;;;;;;;40.81;27.98;100211.88;84764;1329;22854;-71
2022/08/19 09:15:44;;;;;;;9.40;6.90;;;;;;;40.87;27.36;100210.61;84777;1326;25427;-72
2022/08/19 09:17:52;;;;;;;8.40;7.40;;;;;;;40.75;27.70;100211.27;84772;1328;22588;-73
2022/08/19 09:20:06;;;;;;;7.50;6.90;;;;;;;40.63;28.04;100209.29;84754;1326;22602;-73
2022/08/19 09:22:15;;;;;;;7.20;6.50;;;;;;;40.59;28.15;100212.61;84803;1326;25443;-73
2022/08/19 09:24:24;;;;;;;10.30;6.80;;;;;;;40.48;28.61;100216.50;84760;1326;23924;-73
2022/08/19 09:26:33;;;;;;;11.90;7.30;;;;;;;40.51;28.86;100216.05;84687;1328;22691;-71
2022/08/19 09:28:43;;;;;;;11.00;7.80;;;;;;;40.62;28.81;100214.72;84727;1329;24457;-70
2022/08/19 09:30:52;;;;;;;8.40;7.50;;;;;;;40.62;28.24;100213.85;84714;1330;23965;-71
2022/08/19 09:33:01;;;;;;;16.00;7.40;;;;;;;40.32;28.42;100209.64;84696;1329;25937;-73
2022/08/19 09:35:12;;;;;;;11.50;8.00;;;;;;;40.10;29.29;100215.30;84711;1329;22597;-73
2022/08/19 09:37:21;;;;;;;12.10;8.20;;;;;;;39.89;29.31;100216.25;84665;1330;22599;-74
2022/08/19 09:39:30;;;;;;;9.10;8.10;;;;;;;39.64;29.54;100220.73;84701;1330;25336;-74
2022/08/19 09:41:39;;;;;;;12.00;6.60;;;;;;;39.35;29.85;100225.73;84706;1329;22620;-72
2022/08/19 09:43:51;;;;;;;9.90;6.60;;;;;;;39.10;30.78;100220.35;84715;1329;22589;-71
2022/08/19 09:46:00;;;;;;;7.90;6.50;;;;;;;38.88;30.63;100220.98;84722;1331;23919;-72
2022/08/19 09:48:10;;;;;;;8.60;6.90;;;;;;;38.65;30.85;100224.16;84647;1332;22599;-72
2022/08/19 09:50:19;;;;;;;10.40;6.00;;;;;;;38.46;30.71;100225.63;84714;1324;22849;-72
2022/08/19 09:52:28;;;;;;;8.50;6.40;;;;;;;38.19;30.47;100226.02;84692;1329;22587;-73
2022/08/19 09:54:36;;;;;;;13.70;7.00;;;;;;;37.95;30.91;100224.01;84702;1332;22594;-73
2022/08/19 09:56:44;;;;;;;;;;;;;;;37.73;31.02;100222.31;84698;1330;22568;-72
2022/08/19 09:58:52;;;;;;;8.30;5.90;;;;;;;37.41;31.01;100222.38;84731;1328;22609;-71
2022/08/19 10:01:02;;;;;;;8.00;5.70;;;;;;;37.01;30.58;100226.23;84715;1332;23930;-72
2022/08/19 10:03:12;;;;;;;11.70;6.80;;;;;;;36.57;31.28;100216.10;84700;1328;22619;-72
2022/08/19 10:07:47;;;;;;;8.00;6.10;;;;;;;35.98;32.08;100205.47;84651;1329;22590;-72
2022/08/19 10:09:56;;;;;;;10.20;6.30;;;;;;;35.77;32.81;100202.10;84597;1330;22589;-72
2022/08/19 10:12:05;;;;;;;9.10;5.70;;;;;;;35.67;33.37;100206.81;84713;1330;23920;-72
2022/08/19 10:14:14;;;;;;;7.10;6.40;;;;;;;35.62;33.67;100199.89;84711;1328;25976;-72
2022/08/19 10:16:24;;;;;;;8.70;6.50;;;;;;;35.57;33.53;100199.68;84737;1328;23245;-72